createdAt,value
2023-05-09T00:00:47.910Z,18.10
2023-05-09T00:01:50.162Z,18.20
2023-05-09T00:02:54.281Z,18.10
2023-05-09T00:03:56.108Z,18.00
2023-05-09T00:04:58.138Z,18.00
2023-05-09T00:06:00.222Z,18.00
2023-05-09T00:07:01.943Z,18.20
2023-05-09T00:08:03.892Z,18.00
2023-05-09T00:09:05.988Z,18.10
2023-05-09T00:10:08.269Z,18.10
2023-05-09T00:11:10.238Z,18.00
2023-05-09T00:12:12.667Z,18.00
2023-05-09T00:13:14.778Z,18.00
2023-05-09T00:14:18.330Z,18.00
2023-05-09T00:15:20.146Z,18.00
2023-05-09T00:16:26.571Z,18.20
2023-05-09T00:17:28.963Z,18.00
2023-05-09T00:18:31.503Z,18.00
2023-05-09T00:19:33.902Z,18.00
2023-05-09T00:20:36.204Z,18.00
2023-05-09T00:21:38.129Z,18.00
2023-05-09T00:22:41.268Z,18.00
2023-05-09T00:23:43.108Z,18.00
2023-05-09T00:24:45.411Z,18.00
2023-05-09T00:25:47.265Z,18.00
2023-05-09T00:26:49.118Z,17.90
2023-05-09T00:27:51.259Z,18.00
2023-05-09T00:28:53.248Z,18.00
2023-05-09T00:29:55.411Z,17.90
2023-05-09T00:30:57.237Z,17.90
2023-05-09T00:31:59.387Z,17.90
2023-05-09T00:33:01.746Z,17.90
2023-05-09T00:34:03.541Z,17.90
2023-05-09T00:35:06.156Z,17.90
2023-05-09T00:36:08.165Z,17.90
2023-05-09T00:37:09.999Z,17.90
2023-05-09T00:38:12.223Z,17.90
2023-05-09T00:39:14.354Z,17.90
2023-05-09T00:40:16.185Z,17.90
2023-05-09T00:41:18.011Z,17.80
2023-05-09T00:42:20.104Z,17.80
2023-05-09T00:43:21.866Z,17.80
2023-05-09T00:44:23.666Z,17.80
2023-05-09T00:45:25.551Z,17.80
2023-05-09T00:46:27.906Z,17.80
2023-05-09T00:47:30.434Z,17.80
2023-05-09T00:48:32.398Z,17.80
2023-05-09T00:49:34.573Z,17.70
2023-05-09T00:50:36.648Z,17.70
2023-05-09T00:51:41.204Z,17.70
2023-05-09T00:52:43.187Z,17.70
2023-05-09T00:53:45.950Z,17.70
2023-05-09T00:54:48.030Z,17.70
2023-05-09T00:55:50.213Z,17.70
2023-05-09T00:56:52.189Z,17.60
2023-05-09T00:57:54.058Z,17.60
2023-05-09T00:58:55.911Z,17.60
2023-05-09T00:59:57.706Z,17.60
2023-05-09T01:01:01.823Z,17.60
2023-05-09T01:02:03.543Z,17.60
2023-05-09T01:03:05.829Z,17.60
2023-05-09T01:04:08.069Z,17.60
2023-05-09T01:05:11.031Z,17.60
2023-05-09T01:07:11.174Z,17.50
2023-05-09T01:08:51.218Z,17.50
2023-05-09T01:10:14.357Z,17.50
2023-05-09T01:11:34.837Z,17.50
2023-05-09T01:13:09.539Z,17.50
2023-05-09T01:14:44.269Z,17.40
2023-05-09T01:16:08.800Z,17.40
2023-05-09T01:17:14.733Z,17.40
2023-05-09T01:18:42.781Z,17.40
2023-05-09T01:20:22.688Z,17.30
2023-05-09T01:21:29.506Z,17.30
2023-05-09T01:22:35.955Z,17.30
2023-05-09T01:24:11.283Z,17.30
2023-05-09T01:25:33.521Z,17.30
2023-05-09T01:26:47.132Z,17.30
2023-05-09T01:27:57.874Z,17.30
2023-05-09T01:29:23.830Z,17.30
2023-05-09T01:30:27.587Z,17.30
2023-05-09T01:31:30.561Z,17.30
2023-05-09T01:32:36.740Z,17.30
2023-05-09T01:33:41.138Z,17.30
2023-05-09T01:34:45.239Z,17.30
2023-05-09T01:35:52.831Z,17.30
2023-05-09T01:36:59.857Z,17.30
2023-05-09T01:38:04.593Z,17.30
2023-05-09T01:39:07.440Z,17.20
2023-05-09T01:40:18.028Z,17.20
2023-05-09T01:41:22.612Z,17.20
2023-05-09T01:42:27.577Z,17.20
2023-05-09T01:43:31.188Z,17.20
2023-05-09T01:44:38.229Z,17.20
2023-05-09T01:45:41.508Z,17.20
2023-05-09T01:46:44.447Z,17.20
2023-05-09T01:47:49.045Z,17.20
2023-05-09T01:48:52.317Z,17.20
2023-05-09T01:49:55.221Z,17.20
2023-05-09T01:50:58.747Z,17.20
2023-05-09T01:52:04.024Z,17.20
2023-05-09T01:53:06.762Z,17.20
2023-05-09T01:54:10.361Z,17.20
2023-05-09T01:55:13.447Z,17.20
2023-05-09T01:56:16.698Z,17.20
2023-05-09T01:57:19.545Z,17.20
2023-05-09T01:58:22.502Z,17.30
2023-05-09T01:59:25.446Z,17.20
2023-05-09T02:00:27.932Z,17.20
2023-05-09T02:01:30.906Z,17.20
2023-05-09T02:02:33.737Z,17.20
2023-05-09T02:03:38.033Z,17.40
2023-05-09T02:04:42.494Z,17.40
2023-05-09T02:05:45.738Z,17.20
2023-05-09T02:06:51.378Z,17.20
2023-05-09T02:07:57.229Z,17.20
2023-05-09T02:08:59.910Z,17.20
2023-05-09T02:10:03.185Z,17.20
2023-05-09T02:11:04.940Z,17.20
2023-05-09T02:12:07.312Z,17.20
2023-05-09T02:13:09.124Z,17.20
2023-05-09T02:14:11.157Z,17.30
2023-05-09T02:15:13.460Z,17.30
2023-05-09T02:16:16.277Z,17.20
2023-05-09T02:17:21.568Z,17.20
2023-05-09T02:18:23.516Z,17.20
2023-05-09T02:19:25.277Z,17.20
2023-05-09T02:20:27.323Z,17.20
2023-05-09T02:21:29.380Z,17.20
2023-05-09T02:22:31.528Z,17.20
2023-05-09T02:23:33.419Z,17.20
2023-05-09T02:24:36.169Z,17.40
2023-05-09T02:25:39.195Z,17.30
2023-05-09T02:26:41.402Z,17.30
2023-05-09T02:27:45.635Z,17.30
2023-05-09T02:28:48.430Z,17.30
2023-05-09T02:29:54.432Z,17.30
2023-05-09T02:30:58.891Z,17.30
2023-05-09T02:32:03.118Z,17.30
2023-05-09T02:33:07.644Z,17.30
2023-05-09T02:34:10.954Z,17.30
2023-05-09T02:35:15.163Z,17.30
2023-05-09T02:36:18.144Z,17.30
2023-05-09T02:37:21.726Z,17.30
2023-05-09T02:38:24.412Z,17.30
2023-05-09T02:39:26.578Z,17.30
2023-05-09T02:40:30.311Z,17.30
2023-05-09T02:41:32.164Z,17.30
2023-05-09T02:42:34.029Z,17.20
2023-05-09T02:43:35.728Z,17.20
2023-05-09T02:44:39.037Z,17.20
2023-05-09T02:45:41.399Z,17.20
2023-05-09T02:46:43.116Z,17.20
2023-05-09T02:47:44.956Z,17.20
2023-05-09T02:48:46.767Z,17.20
2023-05-09T02:49:49.156Z,17.40
2023-05-09T02:50:50.910Z,17.10
2023-05-09T02:51:52.901Z,17.10
2023-05-09T02:52:54.735Z,17.10
2023-05-09T02:53:56.861Z,17.10
2023-05-09T02:54:59.044Z,17.20
2023-05-09T02:56:01.136Z,17.10
2023-05-09T02:57:03.205Z,17.10
2023-05-09T02:58:13.667Z,17.10
2023-05-09T02:59:18.359Z,17.10
2023-05-09T03:00:21.646Z,17.20
2023-05-09T03:01:24.116Z,17.10
2023-05-09T03:02:26.500Z,17.10
2023-05-09T03:03:28.942Z,17.10
2023-05-09T03:04:31.069Z,17.10
2023-05-09T03:05:33.119Z,17.00
2023-05-09T03:06:34.836Z,17.00
2023-05-09T03:07:36.965Z,17.00
2023-05-09T03:08:38.886Z,17.00
2023-05-09T03:09:41.318Z,17.00
2023-05-09T03:10:43.321Z,17.00
2023-05-09T03:11:45.044Z,16.90
2023-05-09T03:12:47.092Z,16.90
2023-05-09T03:13:49.169Z,16.90
2023-05-09T03:14:50.913Z,16.90
2023-05-09T03:15:52.834Z,16.90
2023-05-09T03:16:58.705Z,16.90
2023-05-09T03:18:00.513Z,16.60
2023-05-09T03:19:02.961Z,16.80
2023-05-09T03:20:05.756Z,16.80
2023-05-09T03:21:07.501Z,16.80
2023-05-09T03:22:09.428Z,16.80
2023-05-09T03:23:11.313Z,16.80
2023-05-09T03:24:13.340Z,16.80
2023-05-09T03:25:15.488Z,16.80
2023-05-09T03:26:17.484Z,16.80
2023-05-09T03:27:20.297Z,16.80
2023-05-09T03:28:22.152Z,16.80
2023-05-09T03:29:24.190Z,16.80
2023-05-09T03:30:27.272Z,16.80
2023-05-09T03:31:29.129Z,16.80
2023-05-09T03:32:31.057Z,16.80
2023-05-09T03:33:32.857Z,16.70
2023-05-09T03:34:34.669Z,16.70
2023-05-09T03:35:36.360Z,16.70
2023-05-09T03:36:38.249Z,16.70
2023-05-09T03:37:40.005Z,16.70
2023-05-09T03:38:41.738Z,16.60
2023-05-09T03:39:43.783Z,16.60
2023-05-09T03:40:45.735Z,16.60
2023-05-09T03:41:47.838Z,16.60
2023-05-09T03:42:49.514Z,16.60
2023-05-09T03:43:51.354Z,16.60
2023-05-09T03:44:53.086Z,16.60
2023-05-09T03:45:55.229Z,16.60
2023-05-09T03:46:56.946Z,16.70
2023-05-09T03:47:59.165Z,16.60
2023-05-09T03:49:01.115Z,16.60
2023-05-09T03:50:02.977Z,16.60
2023-05-09T03:51:05.084Z,16.60
2023-05-09T03:52:06.888Z,16.60
2023-05-09T03:53:08.772Z,16.60
2023-05-09T03:54:10.629Z,16.60
2023-05-09T03:55:13.030Z,16.60
2023-05-09T03:56:15.285Z,16.60
2023-05-09T03:57:17.121Z,16.60
2023-05-09T03:58:19.494Z,16.60
2023-05-09T03:59:21.530Z,16.60
2023-05-09T04:00:24.019Z,16.60
2023-05-09T04:01:25.908Z,16.70
2023-05-09T04:02:27.834Z,16.70
2023-05-09T04:03:30.078Z,16.70
2023-05-09T04:04:31.837Z,16.70
2023-05-09T04:05:34.071Z,16.60
2023-05-09T04:06:36.403Z,16.70
2023-05-09T04:07:38.475Z,16.70
2023-05-09T04:08:40.341Z,16.70
2023-05-09T04:09:42.935Z,16.70
2023-05-09T04:10:45.055Z,16.80
2023-05-09T04:11:46.779Z,16.80
2023-05-09T04:12:48.747Z,16.80
2023-05-09T04:13:50.638Z,16.80
2023-05-09T04:14:52.405Z,16.80
2023-05-09T04:15:54.161Z,16.80
2023-05-09T04:16:56.094Z,16.80
2023-05-09T04:17:58.221Z,16.90
2023-05-09T04:19:00.250Z,16.90
2023-05-09T04:20:02.272Z,16.90
2023-05-09T04:21:04.164Z,16.90
2023-05-09T04:22:06.010Z,16.80
2023-05-09T04:23:08.133Z,16.80
2023-05-09T04:24:09.884Z,16.80
2023-05-09T04:25:12.729Z,16.80
2023-05-09T04:26:15.930Z,16.80
2023-05-09T04:27:17.684Z,16.80
2023-05-09T04:28:19.524Z,16.80
2023-05-09T04:29:21.366Z,16.80
2023-05-09T04:30:24.447Z,16.80
2023-05-09T04:31:26.891Z,16.80
2023-05-09T04:32:28.627Z,16.80
2023-05-09T04:33:31.023Z,16.80
2023-05-09T04:34:33.647Z,16.80
2023-05-09T04:35:35.701Z,16.80
2023-05-09T04:36:37.416Z,16.80
2023-05-09T04:37:39.236Z,16.80
2023-05-09T04:38:41.069Z,16.80
2023-05-09T04:39:42.941Z,16.80
2023-05-09T04:40:44.725Z,16.80
2023-05-09T04:41:48.153Z,16.80
2023-05-09T04:42:49.974Z,16.80
2023-05-09T04:43:52.658Z,16.80
2023-05-09T04:44:54.698Z,16.80
2023-05-09T04:45:56.778Z,16.80
2023-05-09T04:46:59.082Z,16.80
2023-05-09T04:48:00.957Z,16.80
2023-05-09T04:49:03.116Z,16.90
2023-05-09T04:50:05.652Z,16.90
2023-05-09T04:51:07.884Z,16.90
2023-05-09T04:52:09.619Z,16.90
2023-05-09T04:53:13.476Z,17.00
2023-05-09T04:54:15.188Z,17.00
2023-05-09T04:55:17.072Z,17.00
2023-05-09T04:56:19.091Z,17.00
2023-05-09T04:57:20.951Z,17.00
2023-05-09T04:58:23.064Z,17.00
2023-05-09T04:59:25.112Z,17.10
2023-05-09T05:00:26.862Z,17.10
2023-05-09T05:01:28.571Z,17.10
2023-05-09T05:02:31.800Z,17.00
2023-05-09T05:03:33.986Z,17.00
2023-05-09T05:04:36.379Z,17.20
2023-05-09T05:05:38.660Z,17.10
2023-05-09T05:06:40.642Z,17.00
2023-05-09T05:07:42.488Z,17.00
2023-05-09T05:08:45.169Z,17.00
2023-05-09T05:09:47.152Z,17.10
2023-05-09T05:10:49.751Z,17.00
2023-05-09T05:12:00.648Z,17.00
2023-05-09T05:13:03.790Z,17.10
2023-05-09T05:14:05.827Z,17.10
2023-05-09T05:15:08.105Z,17.10
2023-05-09T05:16:11.605Z,17.10
2023-05-09T05:17:14.149Z,17.10
2023-05-09T05:18:16.037Z,17.10
2023-05-09T05:19:18.622Z,17.10
2023-05-09T05:20:21.206Z,17.10
2023-05-09T05:21:22.942Z,17.10
2023-05-09T05:22:24.816Z,17.10
2023-05-09T05:23:29.370Z,17.10
2023-05-09T05:24:31.179Z,17.20
2023-05-09T05:25:32.908Z,17.20
2023-05-09T05:26:34.576Z,17.20
2023-05-09T05:27:36.482Z,17.20
2023-05-09T05:28:38.494Z,17.20
2023-05-09T05:29:40.243Z,17.20
2023-05-09T05:30:42.257Z,17.30
2023-05-09T05:31:44.054Z,17.30
2023-05-09T05:32:45.817Z,17.40
2023-05-09T05:33:47.809Z,17.40
2023-05-09T05:34:49.849Z,17.40
2023-05-09T05:35:52.016Z,17.40
2023-05-09T05:36:53.701Z,17.40
2023-05-09T05:37:55.942Z,17.40
2023-05-09T05:38:57.772Z,17.40
2023-05-09T05:39:59.659Z,17.40
2023-05-09T05:41:01.449Z,17.40
2023-05-09T05:42:03.719Z,17.40
2023-05-09T05:43:05.458Z,17.40
2023-05-09T05:44:07.175Z,17.40
2023-05-09T05:45:09.438Z,17.40
2023-05-09T05:46:11.208Z,17.40
2023-05-09T05:47:13.032Z,17.40
2023-05-09T05:48:15.419Z,17.40
2023-05-09T05:49:17.250Z,17.50
2023-05-09T05:50:19.077Z,17.50
2023-05-09T05:51:21.045Z,17.50
2023-05-09T05:52:22.914Z,17.60
2023-05-09T05:53:24.761Z,17.60
2023-05-09T05:54:26.814Z,17.60
2023-05-09T05:55:28.611Z,17.60
2023-05-09T05:56:31.057Z,17.60
2023-05-09T05:57:33.514Z,17.60
2023-05-09T05:58:35.641Z,17.60
2023-05-09T05:59:37.466Z,17.60
2023-05-09T06:00:40.024Z,17.60
2023-05-09T06:01:41.833Z,17.60
2023-05-09T06:02:44.695Z,17.60
2023-05-09T06:03:49.889Z,17.60
2023-05-09T06:04:53.292Z,17.70
2023-05-09T06:05:56.548Z,17.50
2023-05-09T06:06:58.873Z,17.50
2023-05-09T06:08:00.901Z,17.50
2023-05-09T06:09:02.932Z,17.60
2023-05-09T06:10:05.244Z,17.60
2023-05-09T06:11:07.883Z,17.60
2023-05-09T06:12:09.719Z,17.60
2023-05-09T06:13:11.625Z,17.60
2023-05-09T06:14:13.717Z,17.60
2023-05-09T06:15:15.988Z,17.60
2023-05-09T06:16:20.399Z,17.70
2023-05-09T06:17:24.623Z,17.80
2023-05-09T06:18:26.805Z,17.90
2023-05-09T06:19:28.780Z,18.00
2023-05-09T06:20:30.534Z,18.10
2023-05-09T06:21:35.139Z,18.20
2023-05-09T06:22:36.917Z,18.30
2023-05-09T06:23:44.662Z,18.50
2023-05-09T06:24:53.041Z,18.40
2023-05-09T06:25:54.732Z,18.50
2023-05-09T06:26:56.515Z,18.60
2023-05-09T06:27:58.226Z,18.60
2023-05-09T06:29:00.316Z,18.60
2023-05-09T06:30:08.346Z,18.60
2023-05-09T06:31:16.371Z,18.70
2023-05-09T06:32:21.715Z,18.60
2023-05-09T06:33:23.408Z,18.60
2023-05-09T06:34:25.306Z,18.80
2023-05-09T06:35:27.128Z,18.80
2023-05-09T06:36:28.924Z,18.70
2023-05-09T06:37:33.996Z,18.80
2023-05-09T06:38:35.878Z,18.80
2023-05-09T06:39:37.730Z,18.60
2023-05-09T06:40:39.535Z,18.50
2023-05-09T06:41:41.319Z,18.50
2023-05-09T06:42:43.070Z,18.50
2023-05-09T06:43:44.853Z,18.50
2023-05-09T06:44:46.945Z,18.50
2023-05-09T06:45:49.099Z,18.50
2023-05-09T06:46:51.268Z,18.50
2023-05-09T06:47:53.236Z,18.50
2023-05-09T06:48:55.256Z,18.50
2023-05-09T06:49:56.960Z,18.40
2023-05-09T06:50:58.696Z,18.40
2023-05-09T06:52:00.468Z,18.40
2023-05-09T06:53:02.207Z,18.40
2023-05-09T06:54:04.323Z,18.40
2023-05-09T06:55:07.044Z,18.30
2023-05-09T06:56:08.758Z,18.30
2023-05-09T06:57:10.660Z,18.30
2023-05-09T06:58:12.420Z,18.30
2023-05-09T06:59:17.383Z,18.30
2023-05-09T07:00:19.511Z,18.30
2023-05-09T07:01:21.454Z,18.40
2023-05-09T07:02:23.609Z,18.40
2023-05-09T07:03:26.087Z,18.40
2023-05-09T07:04:28.407Z,18.50
2023-05-09T07:05:30.314Z,18.50
2023-05-09T07:06:32.051Z,18.50
2023-05-09T07:07:35.930Z,18.50
2023-05-09T07:08:37.739Z,18.60
2023-05-09T07:09:39.408Z,18.80
2023-05-09T07:10:41.163Z,18.60
2023-05-09T07:11:43.263Z,18.60
2023-05-09T07:12:45.082Z,18.70
2023-05-09T07:13:46.777Z,18.80
2023-05-09T07:14:48.500Z,18.90
2023-05-09T07:15:50.528Z,18.90
2023-05-09T07:16:56.474Z,19.00
2023-05-09T07:18:02.024Z,19.10
2023-05-09T07:19:04.297Z,19.10
2023-05-09T07:20:07.187Z,19.10
2023-05-09T07:21:09.048Z,19.10
2023-05-09T07:22:10.982Z,19.10
2023-05-09T07:23:14.370Z,19.10
2023-05-09T07:24:16.796Z,19.20
2023-05-09T07:25:18.939Z,19.10
2023-05-09T07:26:21.342Z,19.10
2023-05-09T07:27:23.147Z,19.20
2023-05-09T07:28:28.534Z,19.10
2023-05-09T07:29:36.003Z,19.10
2023-05-09T07:30:40.566Z,19.10
2023-05-09T07:31:44.443Z,19.10
2023-05-09T07:32:46.965Z,19.10
2023-05-09T07:33:50.875Z,19.10
2023-05-09T07:34:53.385Z,19.10
2023-05-09T07:35:55.183Z,19.20
2023-05-09T07:36:58.850Z,19.30
2023-05-09T07:38:00.658Z,19.30
2023-05-09T07:39:02.579Z,19.60
2023-05-09T07:40:06.255Z,19.40
2023-05-09T07:41:08.141Z,19.50
2023-05-09T07:42:09.890Z,19.50
2023-05-09T07:43:11.515Z,19.50
2023-05-09T07:44:13.165Z,19.60
2023-05-09T07:45:15.174Z,19.80
2023-05-09T07:46:16.977Z,19.70
2023-05-09T07:47:18.798Z,19.70
2023-05-09T07:48:20.650Z,19.70
2023-05-09T07:49:23.333Z,19.80
2023-05-09T07:50:28.847Z,19.80
2023-05-09T07:51:30.744Z,19.90
2023-05-09T07:52:32.641Z,20.10
2023-05-09T07:53:34.762Z,20.00
2023-05-09T07:54:37.914Z,20.00
2023-05-09T07:55:39.735Z,20.10
2023-05-09T07:56:41.435Z,20.10
2023-05-09T07:57:43.191Z,20.10
2023-05-09T07:58:46.137Z,20.30
2023-05-09T07:59:47.965Z,20.20
2023-05-09T08:00:49.664Z,20.20
2023-05-09T08:01:53.840Z,20.20
2023-05-09T08:02:55.829Z,20.30
2023-05-09T08:03:57.747Z,20.20
2023-05-09T08:04:59.618Z,20.20
2023-05-09T08:06:01.435Z,20.20
2023-05-09T08:07:06.259Z,20.40
2023-05-09T08:08:08.029Z,20.20
2023-05-09T08:09:10.328Z,20.30
2023-05-09T08:10:12.401Z,20.30
2023-05-09T08:11:14.156Z,20.30
2023-05-09T08:12:16.935Z,20.30
2023-05-09T08:13:19.181Z,20.30
2023-05-09T08:14:23.511Z,20.30
2023-05-09T08:15:25.426Z,20.30
2023-05-09T08:16:27.556Z,20.40
2023-05-09T08:17:29.960Z,20.40
2023-05-09T08:18:31.747Z,20.40
2023-05-09T08:19:33.472Z,20.40
2023-05-09T08:20:36.167Z,20.40
2023-05-09T08:21:39.157Z,20.40
2023-05-09T08:22:41.324Z,20.40
2023-05-09T08:23:43.214Z,20.40
2023-05-09T08:24:46.496Z,20.50
2023-05-09T08:25:48.200Z,20.50
2023-05-09T08:26:50.058Z,20.50
2023-05-09T08:27:53.069Z,20.50
2023-05-09T08:28:55.235Z,20.50
2023-05-09T08:29:56.890Z,20.40
2023-05-09T08:30:58.689Z,20.40
2023-05-09T08:32:01.468Z,20.50
2023-05-09T08:33:03.798Z,20.50
2023-05-09T08:34:05.700Z,20.30
2023-05-09T08:35:08.971Z,20.30
2023-05-09T08:36:11.067Z,20.30
2023-05-09T08:37:15.075Z,20.40
2023-05-09T08:38:17.265Z,20.30
2023-05-09T08:39:19.452Z,20.30
2023-05-09T08:40:21.423Z,20.30
2023-05-09T08:41:28.092Z,20.40
2023-05-09T08:42:32.085Z,20.40
2023-05-09T08:43:34.489Z,20.40
2023-05-09T08:44:36.215Z,20.40
2023-05-09T08:45:58.024Z,20.40
2023-05-09T08:47:02.459Z,20.50
2023-05-09T08:48:04.683Z,20.40
2023-05-09T08:49:07.389Z,20.40
2023-05-09T08:50:12.266Z,20.40
2023-05-09T08:51:16.090Z,20.40
2023-05-09T08:52:18.272Z,20.40
2023-05-09T08:53:21.758Z,20.50
2023-05-09T08:54:24.801Z,20.60
2023-05-09T08:55:27.855Z,20.60
2023-05-09T08:56:32.867Z,20.60
2023-05-09T08:57:37.571Z,20.60
2023-05-09T08:58:40.269Z,20.60
2023-05-09T08:59:43.801Z,20.70
2023-05-09T09:00:46.727Z,20.80
2023-05-09T09:01:49.515Z,20.90
2023-05-09T09:02:53.307Z,20.80
2023-05-09T09:03:55.714Z,20.70
2023-05-09T09:04:57.597Z,20.70
2023-05-09T09:05:59.972Z,20.90
2023-05-09T09:07:05.833Z,21.00
2023-05-09T09:08:08.374Z,20.90
2023-05-09T09:09:12.894Z,20.90
2023-05-09T09:10:15.430Z,21.00
2023-05-09T09:11:18.601Z,21.00
2023-05-09T09:12:25.815Z,21.00
2023-05-09T09:13:28.461Z,21.00
2023-05-09T09:14:32.582Z,21.00
2023-05-09T09:15:43.619Z,21.30
2023-05-09T09:16:50.929Z,21.10
2023-05-09T09:17:56.707Z,21.10
2023-05-09T09:18:59.773Z,21.30
2023-05-09T09:20:05.764Z,21.20
2023-05-09T09:21:12.238Z,21.20
2023-05-09T09:22:18.482Z,21.30
2023-05-09T09:23:24.396Z,21.40
2023-05-09T09:24:26.109Z,21.30
2023-05-09T09:25:27.919Z,21.40
2023-05-09T09:26:32.076Z,21.30
2023-05-09T09:27:34.287Z,21.30
2023-05-09T09:28:36.662Z,21.40
2023-05-09T09:29:41.367Z,21.30
2023-05-09T09:30:51.340Z,21.30
2023-05-09T09:31:56.842Z,21.40
2023-05-09T09:33:01.446Z,21.40
2023-05-09T09:34:03.734Z,21.60
2023-05-09T09:35:07.106Z,21.50
2023-05-09T09:36:09.245Z,21.60
2023-05-09T09:37:24.768Z,21.70
2023-05-09T09:38:26.912Z,21.70
2023-05-09T09:39:28.846Z,21.70
2023-05-09T09:40:30.839Z,21.80
2023-05-09T09:41:37.240Z,21.80
2023-05-09T09:42:45.967Z,21.80
2023-05-09T09:43:47.788Z,21.80
2023-05-09T09:45:19.457Z,21.90
2023-05-09T09:46:21.494Z,21.90
2023-05-09T09:47:33.168Z,21.80
2023-05-09T09:48:35.867Z,21.70
2023-05-09T09:49:37.750Z,21.70
2023-05-09T09:50:39.566Z,21.80
2023-05-09T09:51:41.957Z,21.70
2023-05-09T09:52:44.455Z,21.60
2023-05-09T09:53:47.142Z,21.60
2023-05-09T09:54:49.229Z,21.60
2023-05-09T09:55:52.432Z,21.70
2023-05-09T09:56:55.203Z,21.80
2023-05-09T09:57:57.368Z,21.70
2023-05-09T09:59:10.630Z,21.80
2023-05-09T10:00:14.489Z,21.80
2023-05-09T10:01:16.886Z,21.90
2023-05-09T10:02:24.725Z,22.00
2023-05-09T10:03:47.728Z,21.90
2023-05-09T10:04:49.525Z,22.00
2023-05-09T10:06:02.027Z,22.10
2023-05-09T10:07:06.416Z,22.00
2023-05-09T10:08:09.793Z,22.00
2023-05-09T10:09:11.655Z,22.10
2023-05-09T10:10:13.903Z,22.10
2023-05-09T10:11:18.251Z,22.20
2023-05-09T10:12:20.924Z,22.20
2023-05-09T10:13:22.811Z,22.20
2023-05-09T10:14:26.358Z,22.20
2023-05-09T10:15:38.522Z,22.30
2023-05-09T10:16:52.828Z,22.20
2023-05-09T10:17:58.108Z,22.30
2023-05-09T10:18:59.873Z,22.20
2023-05-09T10:20:06.119Z,22.20
2023-05-09T10:21:09.606Z,22.30
2023-05-09T10:22:13.868Z,22.30
2023-05-09T10:23:17.929Z,22.30
2023-05-09T10:24:57.763Z,22.40
2023-05-09T10:26:15.849Z,22.40
2023-05-09T10:27:21.983Z,22.50
2023-05-09T10:28:31.609Z,22.60
2023-05-09T10:29:36.177Z,22.40
2023-05-09T10:30:56.803Z,22.60
2023-05-09T10:32:00.283Z,22.50
2023-05-09T10:33:09.294Z,22.50
2023-05-09T10:34:13.113Z,22.60
2023-05-09T10:35:17.964Z,22.60
2023-05-09T10:36:21.335Z,22.60
2023-05-09T10:37:23.245Z,22.60
2023-05-09T10:38:25.871Z,22.60
2023-05-09T10:39:28.711Z,22.80
2023-05-09T10:40:35.152Z,22.60
2023-05-09T10:41:39.080Z,22.70
2023-05-09T10:42:43.086Z,22.70
2023-05-09T10:43:45.955Z,22.70
2023-05-09T10:44:48.392Z,22.70
2023-05-09T10:45:50.532Z,22.80
2023-05-09T10:46:54.233Z,22.70
2023-05-09T10:47:57.106Z,22.70
2023-05-09T10:48:59.315Z,22.70
2023-05-09T10:50:01.887Z,22.70
2023-05-09T10:51:04.393Z,22.70
2023-05-09T10:52:06.212Z,22.80
2023-05-09T10:53:11.492Z,22.80
2023-05-09T10:54:30.570Z,22.90
2023-05-09T10:55:51.023Z,23.00
2023-05-09T10:56:52.794Z,23.00
2023-05-09T10:57:55.086Z,23.00
2023-05-09T10:58:57.748Z,23.00
2023-05-09T11:00:00.674Z,23.10
2023-05-09T11:01:04.544Z,23.10
2023-05-09T11:02:12.572Z,23.10
2023-05-09T11:03:15.822Z,23.10
2023-05-09T11:04:17.785Z,23.10
2023-05-09T11:05:20.389Z,23.00
2023-05-09T11:06:50.813Z,23.00
2023-05-09T11:08:22.661Z,22.90
2023-05-09T11:09:33.714Z,22.80
2023-05-09T11:10:43.014Z,22.70
2023-05-09T11:11:58.328Z,22.80
2023-05-09T11:13:00.919Z,22.90
2023-05-09T11:14:02.743Z,22.90
2023-05-09T11:15:10.183Z,22.90
2023-05-09T11:16:12.659Z,22.90
2023-05-09T11:17:26.754Z,23.00
2023-05-09T11:18:33.650Z,23.00
2023-05-09T11:20:01.767Z,23.10
2023-05-09T11:21:10.002Z,23.00
2023-05-09T11:22:29.499Z,23.10
2023-05-09T11:23:33.193Z,23.10
2023-05-09T11:24:38.323Z,23.20
2023-05-09T11:25:40.111Z,23.20
2023-05-09T11:26:48.089Z,23.30
2023-05-09T11:27:50.190Z,23.40
2023-05-09T11:28:53.968Z,23.40
2023-05-09T11:29:59.831Z,23.40
2023-05-09T11:31:19.811Z,23.40
2023-05-09T11:32:31.866Z,23.50
2023-05-09T11:33:37.587Z,23.50
2023-05-09T11:34:43.102Z,23.40
2023-05-09T11:35:45.567Z,23.40
2023-05-09T11:36:48.173Z,23.40
2023-05-09T11:38:06.062Z,23.40
2023-05-09T11:39:09.776Z,23.40
2023-05-09T11:40:13.217Z,23.40
2023-05-09T11:41:15.865Z,23.40
2023-05-09T11:42:18.403Z,23.50
2023-05-09T11:43:20.368Z,23.60
2023-05-09T11:44:22.086Z,23.60
2023-05-09T11:45:28.726Z,23.50
2023-05-09T11:46:30.960Z,23.60
2023-05-09T11:47:36.173Z,23.70
2023-05-09T11:48:39.687Z,23.70
2023-05-09T11:49:45.475Z,23.70
2023-05-09T11:50:48.362Z,23.70
2023-05-09T11:51:50.221Z,23.70
2023-05-09T11:52:52.052Z,23.80
2023-05-09T11:53:54.269Z,23.80
2023-05-09T11:55:00.219Z,23.80
2023-05-09T11:56:05.121Z,23.90
2023-05-09T11:57:07.711Z,24.00
2023-05-09T11:58:09.916Z,24.00
2023-05-09T11:59:14.671Z,24.00
2023-05-09T12:00:18.651Z,24.10
2023-05-09T12:01:20.710Z,24.10
2023-05-09T12:02:22.854Z,24.00
2023-05-09T12:03:25.388Z,24.00
2023-05-09T12:04:30.494Z,24.10
2023-05-09T12:05:32.344Z,24.10
2023-05-09T12:06:34.339Z,24.10
2023-05-09T12:07:38.055Z,24.20
2023-05-09T12:08:39.963Z,24.30
2023-05-09T12:09:43.620Z,24.30
2023-05-09T12:10:46.699Z,24.40
2023-05-09T12:11:54.267Z,24.50
2023-05-09T12:12:57.056Z,24.60
2023-05-09T12:13:58.791Z,24.60
2023-05-09T12:15:07.628Z,24.70
2023-05-09T12:16:11.587Z,24.60
2023-05-09T12:17:14.636Z,24.70
2023-05-09T12:18:18.301Z,24.70
2023-05-09T12:19:20.641Z,24.60
2023-05-09T12:20:22.351Z,24.50
2023-05-09T12:21:24.949Z,24.50
2023-05-09T12:22:27.903Z,24.50
2023-05-09T12:23:35.417Z,24.50
2023-05-09T12:24:37.800Z,24.50
2023-05-09T12:25:40.169Z,24.50
2023-05-09T12:26:41.925Z,24.60
2023-05-09T12:27:43.968Z,24.60
2023-05-09T12:28:46.192Z,24.70
2023-05-09T12:29:48.675Z,24.80
2023-05-09T12:30:51.619Z,24.80
2023-05-09T12:31:56.368Z,24.90
2023-05-09T12:32:58.880Z,25.00
2023-05-09T12:34:01.714Z,25.00
2023-05-09T12:35:04.425Z,25.20
2023-05-09T12:36:12.986Z,25.10
2023-05-09T12:37:17.742Z,25.00
2023-05-09T12:38:23.606Z,25.00
2023-05-09T12:39:26.833Z,25.00
2023-05-09T12:40:29.029Z,25.00
2023-05-09T12:41:41.434Z,24.90
2023-05-09T12:42:46.350Z,24.90
2023-05-09T12:43:49.733Z,24.90
2023-05-09T12:44:52.637Z,24.90
2023-05-09T12:45:54.549Z,24.90
2023-05-09T12:47:02.095Z,24.90
2023-05-09T12:48:06.105Z,24.90
2023-05-09T12:49:23.088Z,24.90
2023-05-09T12:50:32.624Z,24.90
2023-05-09T12:51:34.452Z,24.80
2023-05-09T12:52:50.661Z,24.90
2023-05-09T12:54:04.059Z,24.90
2023-05-09T12:55:07.722Z,24.90
2023-05-09T12:56:15.731Z,24.90
2023-05-09T12:57:24.688Z,24.90
2023-05-09T12:58:30.772Z,25.00
2023-05-09T12:59:33.351Z,24.90
2023-05-09T13:00:43.626Z,24.90
2023-05-09T13:01:45.339Z,24.90
2023-05-09T13:02:50.785Z,25.00
2023-05-09T13:04:00.432Z,24.90
2023-05-09T13:05:22.049Z,24.90
2023-05-09T13:06:24.388Z,25.00
2023-05-09T13:07:26.113Z,25.10
2023-05-09T13:08:29.364Z,25.20
2023-05-09T13:09:31.633Z,25.20
2023-05-09T13:10:33.855Z,25.20
2023-05-09T13:11:37.806Z,25.20
2023-05-09T13:12:40.500Z,25.10
2023-05-09T13:13:42.497Z,25.00
2023-05-09T13:14:44.617Z,25.00
2023-05-09T13:15:47.302Z,25.10
2023-05-09T13:16:49.671Z,25.00
2023-05-09T13:17:53.994Z,25.00
2023-05-09T13:18:56.146Z,25.20
2023-05-09T13:19:57.789Z,25.30
2023-05-09T13:20:59.446Z,25.30
2023-05-09T13:22:02.072Z,25.10
2023-05-09T13:23:03.900Z,25.10
2023-05-09T13:24:06.620Z,25.20
2023-05-09T13:25:10.669Z,25.20
2023-05-09T13:26:12.388Z,25.30
2023-05-09T13:27:14.208Z,25.30
2023-05-09T13:28:16.039Z,25.30
2023-05-09T13:29:17.701Z,25.30
2023-05-09T13:30:19.772Z,25.30
2023-05-09T13:31:23.680Z,25.30
2023-05-09T13:32:25.925Z,25.30
2023-05-09T13:33:27.811Z,25.30
2023-05-09T13:34:29.589Z,25.30
2023-05-09T13:35:31.285Z,25.20
2023-05-09T13:36:33.033Z,25.20
2023-05-09T13:37:35.626Z,25.10
2023-05-09T13:38:41.043Z,25.10
2023-05-09T13:39:43.000Z,25.00
2023-05-09T13:40:44.659Z,25.00
2023-05-09T13:41:46.544Z,24.80
2023-05-09T13:42:48.952Z,24.80
2023-05-09T13:43:51.574Z,24.70
2023-05-09T13:44:53.290Z,24.70